sensor_id;sensor_type;location;lat;lon;timestamp;P1;durP1;ratioP1;P2;durP2;ratioP2
52798;SDS011;38667;42.872;74.622;2022-08-21T00:00:01;6.47;;;1.25;;
52798;SDS011;38667;42.872;74.622;2022-08-21T00:02:31;3.22;;;1.10;;
52798;SDS011;38667;42.872;74.622;2022-08-21T00:04:58;3.65;;;1.10;;
52798;SDS011;38667;42.872;74.622;2022-08-21T00:07:24;2.70;;;0.90;;
52798;SDS011;38667;42.872;74.622;2022-08-21T00:09:51;6.15;;;1.30;;
52798;SDS011;38667;42.872;74.622;2022-08-21T00:12:18;4.75;;;1.33;;
52798;SDS011;38667;42.872;74.622;2022-08-21T00:14:44;3.40;;;1.30;;
52798;SDS011;38667;42.872;74.622;2022-08-21T00:17:11;13.20;;;1.95;;
52798;SDS011;38667;42.872;74.622;2022-08-21T00:19:38;11.73;;;1.80;;
52798;SDS011;38667;42.872;74.622;2022-08-21T00:22:05;7.25;;;1.80;;
52798;SDS011;38667;42.872;74.622;2022-08-21T00:24:31;8.07;;;1.65;;
52798;SDS011;38667;42.872;74.622;2022-08-21T00:26:57;7.85;;;2.03;;
52798;SDS011;38667;42.872;74.622;2022-08-21T00:29:24;16.45;;;2.75;;
52798;SDS011;38667;42.872;74.622;2022-08-21T00:31:50;11.70;;;1.92;;
52798;SDS011;38667;42.872;74.622;2022-08-21T00:34:16;13.38;;;2.13;;
52798;SDS011;38667;42.872;74.622;2022-08-21T00:36:44;8.43;;;2.22;;
52798;SDS011;38667;42.872;74.622;2022-08-21T00:39:10;12.75;;;2.03;;
52798;SDS011;38667;42.872;74.622;2022-08-21T00:41:37;9.30;;;2.08;;
52798;SDS011;38667;42.872;74.622;2022-08-21T00:44:04;13.45;;;1.90;;
52798;SDS011;38667;42.872;74.622;2022-08-21T00:46:31;8.05;;;1.65;;
52798;SDS011;38667;42.872;74.622;2022-08-21T00:48:58;11.23;;;1.98;;
52798;SDS011;38667;42.872;74.622;2022-08-21T00:51:25;8.35;;;1.73;;
52798;SDS011;38667;42.872;74.622;2022-08-21T00:53:59;6.50;;;1.80;;
52798;SDS011;38667;42.872;74.622;2022-08-21T00:56:27;10.05;;;1.70;;
52798;SDS011;38667;42.872;74.622;2022-08-21T00:58:53;5.03;;;1.70;;
52798;SDS011;38667;42.872;74.622;2022-08-21T01:01:22;8.35;;;1.73;;
52798;SDS011;38667;42.872;74.622;2022-08-21T01:03:49;4.05;;;1.40;;
52798;SDS011;38667;42.872;74.622;2022-08-21T01:06:18;6.80;;;1.45;;
52798;SDS011;38667;42.872;74.622;2022-08-21T01:08:45;8.00;;;1.90;;
52798;SDS011;38667;42.872;74.622;2022-08-21T01:11:13;10.23;;;2.83;;
52798;SDS011;38667;42.872;74.622;2022-08-21T01:13:39;5.63;;;2.08;;
52798;SDS011;38667;42.872;74.622;2022-08-21T01:16:08;11.48;;;2.63;;
52798;SDS011;38667;42.872;74.622;2022-08-21T01:18:35;13.05;;;2.78;;
52798;SDS011;38667;42.872;74.622;2022-08-21T01:21:04;10.05;;;2.47;;
52798;SDS011;38667;42.872;74.622;2022-08-21T01:23:33;9.20;;;2.88;;
52798;SDS011;38667;42.872;74.622;2022-08-21T01:26:00;8.88;;;2.75;;
52798;SDS011;38667;42.872;74.622;2022-08-21T01:28:26;15.75;;;3.80;;
52798;SDS011;38667;42.872;74.622;2022-08-21T01:30:56;10.70;;;3.50;;
52798;SDS011;38667;42.872;74.622;2022-08-21T01:33:24;7.20;;;3.40;;
52798;SDS011;38667;42.872;74.622;2022-08-21T01:35:50;9.55;;;3.30;;
52798;SDS011;38667;42.872;74.622;2022-08-21T01:38:18;8.70;;;2.85;;
52798;SDS011;38667;42.872;74.622;2022-08-21T01:40:44;7.47;;;2.90;;
52798;SDS011;38667;42.872;74.622;2022-08-21T01:43:11;13.35;;;3.17;;
52798;SDS011;38667;42.872;74.622;2022-08-21T01:45:37;10.60;;;3.58;;
52798;SDS011;38667;42.872;74.622;2022-08-21T01:48:03;10.57;;;3.55;;
52798;SDS011;38667;42.872;74.622;2022-08-21T01:50:30;10.50;;;3.30;;
52798;SDS011;38667;42.872;74.622;2022-08-21T01:52:57;6.80;;;2.75;;
52798;SDS011;38667;42.872;74.622;2022-08-21T01:55:24;6.68;;;2.75;;
52798;SDS011;38667;42.872;74.622;2022-08-21T01:57:51;8.43;;;3.33;;
52798;SDS011;38667;42.872;74.622;2022-08-21T02:00:18;9.02;;;2.55;;
52798;SDS011;38667;42.872;74.622;2022-08-21T02:02:46;8.23;;;3.17;;
52798;SDS011;38667;42.872;74.622;2022-08-21T02:05:12;12.07;;;3.22;;
52798;SDS011;38667;42.872;74.622;2022-08-21T02:07:39;8.40;;;2.85;;
52798;SDS011;38667;42.872;74.622;2022-08-21T02:10:08;7.35;;;3.25;;
52798;SDS011;38667;42.872;74.622;2022-08-21T02:12:38;6.25;;;3.60;;
52798;SDS011;38667;42.872;74.622;2022-08-21T02:15:05;14.88;;;3.60;;
52798;SDS011;38667;42.872;74.622;2022-08-21T02:17:37;13.63;;;3.80;;
52798;SDS011;38667;42.872;74.622;2022-08-21T02:20:05;8.60;;;3.13;;
52798;SDS011;38667;42.872;74.622;2022-08-21T02:22:33;12.20;;;3.55;;
52798;SDS011;38667;42.872;74.622;2022-08-21T02:24:59;8.65;;;3.20;;
52798;SDS011;38667;42.872;74.622;2022-08-21T02:27:25;11.65;;;3.80;;
52798;SDS011;38667;42.872;74.622;2022-08-21T02:29:53;7.65;;;2.95;;
52798;SDS011;38667;42.872;74.622;2022-08-21T02:32:21;12.55;;;2.90;;
52798;SDS011;38667;42.872;74.622;2022-08-21T02:34:47;14.77;;;3.65;;
52798;SDS011;38667;42.872;74.622;2022-08-21T02:37:13;10.05;;;2.67;;
52798;SDS011;38667;42.872;74.622;2022-08-21T02:39:40;8.05;;;2.78;;
52798;SDS011;38667;42.872;74.622;2022-08-21T02:42:06;7.00;;;2.22;;
52798;SDS011;38667;42.872;74.622;2022-08-21T02:44:32;7.55;;;2.67;;
52798;SDS011;38667;42.872;74.622;2022-08-21T02:47:00;10.68;;;2.60;;
52798;SDS011;38667;42.872;74.622;2022-08-21T02:49:27;13.32;;;2.30;;
52798;SDS011;38667;42.872;74.622;2022-08-21T02:51:53;8.75;;;2.47;;
52798;SDS011;38667;42.872;74.622;2022-08-21T02:54:19;14.10;;;3.35;;
52798;SDS011;38667;42.872;74.622;2022-08-21T02:56:45;10.75;;;3.20;;
52798;SDS011;38667;42.872;74.622;2022-08-21T02:59:12;8.15;;;2.85;;
52798;SDS011;38667;42.872;74.622;2022-08-21T03:01:38;6.68;;;2.38;;
52798;SDS011;38667;42.872;74.622;2022-08-21T03:04:06;9.93;;;2.70;;
52798;SDS011;38667;42.872;74.622;2022-08-21T03:06:32;7.75;;;3.03;;
52798;SDS011;38667;42.872;74.622;2022-08-21T03:08:58;7.75;;;2.97;;
52798;SDS011;38667;42.872;74.622;2022-08-21T03:11:25;9.50;;;2.70;;
52798;SDS011;38667;42.872;74.622;2022-08-21T03:13:51;8.05;;;2.85;;
52798;SDS011;38667;42.872;74.622;2022-08-21T03:16:17;5.43;;;2.65;;
52798;SDS011;38667;42.872;74.622;2022-08-21T03:18:44;14.55;;;3.30;;
52798;SDS011;38667;42.872;74.622;2022-08-21T03:21:11;9.40;;;3.38;;
52798;SDS011;38667;42.872;74.622;2022-08-21T03:23:38;12.70;;;3.72;;
52798;SDS011;38667;42.872;74.622;2022-08-21T03:26:05;12.98;;;3.28;;
52798;SDS011;38667;42.872;74.622;2022-08-21T03:28:32;10.15;;;3.05;;
52798;SDS011;38667;42.872;74.622;2022-08-21T03:30:58;6.40;;;2.70;;
52798;SDS011;38667;42.872;74.622;2022-08-21T03:33:24;5.93;;;2.83;;
52798;SDS011;38667;42.872;74.622;2022-08-21T03:35:54;8.82;;;2.40;;
52798;SDS011;38667;42.872;74.622;2022-08-21T03:38:25;6.40;;;3.20;;
52798;SDS011;38667;42.872;74.622;2022-08-21T03:40:53;6.88;;;2.03;;
52798;SDS011;38667;42.872;74.622;2022-08-21T03:43:19;6.82;;;1.95;;
52798;SDS011;38667;42.872;74.622;2022-08-21T03:45:45;7.50;;;2.22;;
52798;SDS011;38667;42.872;74.622;2022-08-21T03:48:12;8.05;;;2.13;;
52798;SDS011;38667;42.872;74.622;2022-08-21T03:50:40;5.90;;;1.52;;
52798;SDS011;38667;42.872;74.622;2022-08-21T03:53:07;4.68;;;1.90;;
52798;SDS011;38667;42.872;74.622;2022-08-21T03:55:36;3.88;;;1.90;;
52798;SDS011;38667;42.872;74.622;2022-08-21T03:58:03;5.53;;;1.60;;
52798;SDS011;38667;42.872;74.622;2022-08-21T04:00:29;6.55;;;1.92;;
52798;SDS011;38667;42.872;74.622;2022-08-21T04:02:56;3.78;;;1.60;;
52798;SDS011;38667;42.872;74.622;2022-08-21T04:05:22;12.07;;;1.70;;
52798;SDS011;38667;42.872;74.622;2022-08-21T04:07:48;6.68;;;1.70;;
52798;SDS011;38667;42.872;74.622;2022-08-21T04:10:15;4.65;;;1.55;;
52798;SDS011;38667;42.872;74.622;2022-08-21T04:12:43;5.00;;;1.52;;
52798;SDS011;38667;42.872;74.622;2022-08-21T04:15:09;4.47;;;1.80;;
52798;SDS011;38667;42.872;74.622;2022-08-21T04:17:35;5.50;;;1.75;;
52798;SDS011;38667;42.872;74.622;2022-08-21T04:20:02;9.55;;;1.83;;
52798;SDS011;38667;42.872;74.622;2022-08-21T04:22:29;7.20;;;1.63;;
52798;SDS011;38667;42.872;74.622;2022-08-21T04:24:55;4.90;;;1.50;;
52798;SDS011;38667;42.872;74.622;2022-08-21T04:27:21;3.45;;;1.42;;
52798;SDS011;38667;42.872;74.622;2022-08-21T04:29:49;3.97;;;1.60;;
52798;SDS011;38667;42.872;74.622;2022-08-21T04:32:21;5.53;;;1.40;;
52798;SDS011;38667;42.872;74.622;2022-08-21T04:34:47;3.80;;;1.50;;
52798;SDS011;38667;42.872;74.622;2022-08-21T04:37:14;4.20;;;1.60;;
52798;SDS011;38667;42.872;74.622;2022-08-21T04:39:40;2.60;;;1.30;;
52798;SDS011;38667;42.872;74.622;2022-08-21T04:42:07;4.30;;;1.80;;
52798;SDS011;38667;42.872;74.622;2022-08-21T04:44:33;5.65;;;1.98;;
52798;SDS011;38667;42.872;74.622;2022-08-21T04:47:01;6.90;;;2.53;;
52798;SDS011;38667;42.872;74.622;2022-08-21T04:49:27;9.52;;;2.70;;
52798;SDS011;38667;42.872;74.622;2022-08-21T04:51:54;11.18;;;2.65;;
52798;SDS011;38667;42.872;74.622;2022-08-21T04:54:20;6.90;;;2.63;;
52798;SDS011;38667;42.872;74.622;2022-08-21T04:56:48;4.07;;;2.45;;
52798;SDS011;38667;42.872;74.622;2022-08-21T04:59:21;5.65;;;2.00;;
52798;SDS011;38667;42.872;74.622;2022-08-21T05:01:50;5.53;;;2.25;;
52798;SDS011;38667;42.872;74.622;2022-08-21T05:04:20;6.45;;;2.30;;
52798;SDS011;38667;42.872;74.622;2022-08-21T05:06:49;7.75;;;1.70;;
52798;SDS011;38667;42.872;74.622;2022-08-21T05:09:17;11.95;;;2.30;;
52798;SDS011;38667;42.872;74.622;2022-08-21T05:11:44;9.18;;;1.77;;
52798;SDS011;38667;42.872;74.622;2022-08-21T05:14:11;7.55;;;1.77;;
52798;SDS011;38667;42.872;74.622;2022-08-21T05:16:37;4.57;;;1.40;;
52798;SDS011;38667;42.872;74.622;2022-08-21T05:19:04;4.97;;;1.50;;
52798;SDS011;38667;42.872;74.622;2022-08-21T05:21:32;6.68;;;1.70;;
52798;SDS011;38667;42.872;74.622;2022-08-21T05:23:59;10.82;;;1.92;;
52798;SDS011;38667;42.872;74.622;2022-08-21T05:26:25;2.33;;;1.23;;
52798;SDS011;38667;42.872;74.622;2022-08-21T05:28:52;4.47;;;1.20;;
52798;SDS011;38667;42.872;74.622;2022-08-21T05:31:18;4.63;;;1.20;;
52798;SDS011;38667;42.872;74.622;2022-08-21T05:33:45;2.58;;;1.50;;
52798;SDS011;38667;42.872;74.622;2022-08-21T05:36:11;2.13;;;1.30;;
52798;SDS011;38667;42.872;74.622;2022-08-21T05:38:39;3.53;;;1.30;;
52798;SDS011;38667;42.872;74.622;2022-08-21T05:41:05;6.05;;;1.85;;
52798;SDS011;38667;42.872;74.622;2022-08-21T05:43:32;3.90;;;1.65;;
52798;SDS011;38667;42.872;74.622;2022-08-21T05:45:58;6.93;;;1.73;;
52798;SDS011;38667;42.872;74.622;2022-08-21T05:48:24;4.57;;;1.77;;
52798;SDS011;38667;42.872;74.622;2022-08-21T05:50:51;2.30;;;1.50;;
52798;SDS011;38667;42.872;74.622;2022-08-21T05:53:18;7.43;;;1.83;;
52798;SDS011;38667;42.872;74.622;2022-08-21T05:55:47;3.40;;;1.40;;
52798;SDS011;38667;42.872;74.622;2022-08-21T05:58:15;5.40;;;2.03;;
52798;SDS011;38667;42.872;74.622;2022-08-21T06:00:42;4.55;;;1.70;;
52798;SDS011;38667;42.872;74.622;2022-08-21T06:03:12;7.57;;;2.22;;
52798;SDS011;38667;42.872;74.622;2022-08-21T06:05:40;7.20;;;1.80;;
52798;SDS011;38667;42.872;74.622;2022-08-21T06:08:06;4.75;;;1.33;;
52798;SDS011;38667;42.872;74.622;2022-08-21T06:10:33;2.90;;;1.65;;
52798;SDS011;38667;42.872;74.622;2022-08-21T06:13:00;4.35;;;1.58;;
52798;SDS011;38667;42.872;74.622;2022-08-21T06:15:27;4.88;;;1.50;;
52798;SDS011;38667;42.872;74.622;2022-08-21T06:17:53;2.75;;;1.48;;
52798;SDS011;38667;42.872;74.622;2022-08-21T06:20:20;2.65;;;1.40;;
52798;SDS011;38667;42.872;74.622;2022-08-21T06:22:47;3.47;;;1.27;;
52798;SDS011;38667;42.872;74.622;2022-08-21T06:25:13;6.13;;;1.27;;
52798;SDS011;38667;42.872;74.622;2022-08-21T06:27:39;3.38;;;1.10;;
52798;SDS011;38667;42.872;74.622;2022-08-21T06:30:08;1.92;;;1.27;;
52798;SDS011;38667;42.872;74.622;2022-08-21T06:32:35;3.25;;;1.60;;
52798;SDS011;38667;42.872;74.622;2022-08-21T06:35:01;2.50;;;1.60;;
52798;SDS011;38667;42.872;74.622;2022-08-21T06:37:29;6.80;;;1.80;;
52798;SDS011;38667;42.872;74.622;2022-08-21T06:39:55;3.28;;;1.30;;
52798;SDS011;38667;42.872;74.622;2022-08-21T06:42:22;1.42;;;1.00;;
52798;SDS011;38667;42.872;74.622;2022-08-21T06:44:48;3.15;;;1.10;;
52798;SDS011;38667;42.872;74.622;2022-08-21T06:47:16;3.55;;;1.10;;
52798;SDS011;38667;42.872;74.622;2022-08-21T06:49:43;4.38;;;1.35;;
52798;SDS011;38667;42.872;74.622;2022-08-21T06:52:09;2.85;;;1.35;;
52798;SDS011;38667;42.872;74.622;2022-08-21T06:54:37;1.90;;;1.13;;
52798;SDS011;38667;42.872;74.622;2022-08-21T06:57:04;3.05;;;1.33;;
52798;SDS011;38667;42.872;74.622;2022-08-21T06:59:31;4.70;;;1.05;;
52798;SDS011;38667;42.872;74.622;2022-08-21T07:01:57;1.48;;;1.00;;
52798;SDS011;38667;42.872;74.622;2022-08-21T07:04:25;4.45;;;1.30;;
52798;SDS011;38667;42.872;74.622;2022-08-21T07:06:52;5.05;;;1.10;;
52798;SDS011;38667;42.872;74.622;2022-08-21T07:09:18;2.15;;;0.88;;
52798;SDS011;38667;42.872;74.622;2022-08-21T07:11:44;5.65;;;1.33;;
52798;SDS011;38667;42.872;74.622;2022-08-21T07:14:15;4.22;;;1.20;;
52798;SDS011;38667;42.872;74.622;2022-08-21T07:16:42;1.65;;;0.95;;
52798;SDS011;38667;42.872;74.622;2022-08-21T07:19:08;3.72;;;0.85;;
52798;SDS011;38667;42.872;74.622;2022-08-21T07:21:36;6.32;;;1.10;;
52798;SDS011;38667;42.872;74.622;2022-08-21T07:24:02;4.60;;;0.90;;
52798;SDS011;38667;42.872;74.622;2022-08-21T07:26:29;6.32;;;1.10;;
52798;SDS011;38667;42.872;74.622;2022-08-21T07:28:55;1.55;;;1.00;;
52798;SDS011;38667;42.872;74.622;2022-08-21T07:31:22;3.72;;;1.08;;
52798;SDS011;38667;42.872;74.622;2022-08-21T07:33:49;1.08;;;0.75;;
52798;SDS011;38667;42.872;74.622;2022-08-21T07:36:16;5.88;;;0.90;;
52798;SDS011;38667;42.872;74.622;2022-08-21T07:38:44;2.30;;;1.17;;
52798;SDS011;38667;42.872;74.622;2022-08-21T07:41:13;6.28;;;1.55;;
52798;SDS011;38667;42.872;74.622;2022-08-21T07:43:41;5.15;;;1.55;;
52798;SDS011;38667;42.872;74.622;2022-08-21T07:46:07;3.05;;;1.00;;
52798;SDS011;38667;42.872;74.622;2022-08-21T07:48:34;4.50;;;1.27;;
52798;SDS011;38667;42.872;74.622;2022-08-21T07:51:01;3.00;;;0.90;;
52798;SDS011;38667;42.872;74.622;2022-08-21T07:53:30;3.53;;;0.90;;
52798;SDS011;38667;42.872;74.622;2022-08-21T07:55:58;4.15;;;0.68;;
52798;SDS011;38667;42.872;74.622;2022-08-21T07:58:25;1.35;;;0.70;;
52798;SDS011;38667;42.872;74.622;2022-08-21T08:00:51;5.50;;;0.75;;
52798;SDS011;38667;42.872;74.622;2022-08-21T08:03:17;1.08;;;0.60;;
52798;SDS011;38667;42.872;74.622;2022-08-21T08:05:43;1.73;;;0.80;;
52798;SDS011;38667;42.872;74.622;2022-08-21T08:08:10;2.40;;;0.90;;
52798;SDS011;38667;42.872;74.622;2022-08-21T08:10:37;2.85;;;1.00;;
52798;SDS011;38667;42.872;74.622;2022-08-21T08:13:05;8.25;;;1.20;;
52798;SDS011;38667;42.872;74.622;2022-08-21T08:15:32;6.47;;;1.75;;
52798;SDS011;38667;42.872;74.622;2022-08-21T08:17:58;4.63;;;1.10;;
52798;SDS011;38667;42.872;74.622;2022-08-21T08:20:24;2.95;;;0.98;;
52798;SDS011;38667;42.872;74.622;2022-08-21T08:22:51;1.50;;;0.88;;
52798;SDS011;38667;42.872;74.622;2022-08-21T08:25:18;3.15;;;0.77;;
52798;SDS011;38667;42.872;74.622;2022-08-21T08:27:45;4.07;;;1.05;;
52798;SDS011;38667;42.872;74.622;2022-08-21T08:30:14;4.07;;;1.08;;
52798;SDS011;38667;42.872;74.622;2022-08-21T08:32:42;5.07;;;0.90;;
52798;SDS011;38667;42.872;74.622;2022-08-21T08:35:08;1.67;;;1.02;;
52798;SDS011;38667;42.872;74.622;2022-08-21T08:37:34;3.95;;;1.25;;
52798;SDS011;38667;42.872;74.622;2022-08-21T08:40:01;1.52;;;0.90;;
52798;SDS011;38667;42.872;74.622;2022-08-21T08:42:29;1.52;;;1.02;;
52798;SDS011;38667;42.872;74.622;2022-08-21T08:44:57;6.75;;;2.25;;
52798;SDS011;38667;42.872;74.622;2022-08-21T08:47:28;9.00;;;1.38;;
52798;SDS011;38667;42.872;74.622;2022-08-21T08:49:58;3.35;;;1.10;;
52798;SDS011;38667;42.872;74.622;2022-08-21T08:52:29;1.80;;;1.02;;
52798;SDS011;38667;42.872;74.622;2022-08-21T08:54:59;4.90;;;1.05;;
52798;SDS011;38667;42.872;74.622;2022-08-21T08:57:29;3.85;;;1.33;;
52798;SDS011;38667;42.872;74.622;2022-08-21T08:59:57;4.13;;;0.95;;
52798;SDS011;38667;42.872;74.622;2022-08-21T09:02:25;2.30;;;1.40;;
52798;SDS011;38667;42.872;74.622;2022-08-21T09:04:53;6.60;;;1.02;;
52798;SDS011;38667;42.872;74.622;2022-08-21T09:07:22;5.00;;;1.10;;
52798;SDS011;38667;42.872;74.622;2022-08-21T09:10:03;3.30;;;0.98;;
52798;SDS011;38667;42.872;74.622;2022-08-21T09:12:39;4.43;;;1.33;;
52798;SDS011;38667;42.872;74.622;2022-08-21T09:15:17;1.45;;;0.80;;
52798;SDS011;38667;42.872;74.622;2022-08-21T09:20:55;3.05;;;1.13;;
52798;SDS011;38667;42.872;74.622;2022-08-21T09:23:31;3.33;;;1.17;;
52798;SDS011;38667;42.872;74.622;2022-08-21T09:26:06;3.72;;;1.10;;
52798;SDS011;38667;42.872;74.622;2022-08-21T09:28:37;1.73;;;0.65;;
52798;SDS011;38667;42.872;74.622;2022-08-21T09:31:05;3.58;;;0.90;;
52798;SDS011;38667;42.872;74.622;2022-08-21T09:33:34;4.15;;;1.02;;
52798;SDS011;38667;42.872;74.622;2022-08-21T09:36:01;6.25;;;1.35;;
52798;SDS011;38667;42.872;74.622;2022-08-21T09:38:30;5.45;;;1.30;;
52798;SDS011;38667;42.872;74.622;2022-08-21T09:40:59;4.72;;;1.00;;
52798;SDS011;38667;42.872;74.622;2022-08-21T09:43:27;2.90;;;0.95;;
52798;SDS011;38667;42.872;74.622;2022-08-21T09:46:04;3.28;;;1.30;;
52798;SDS011;38667;42.872;74.622;2022-08-21T09:48:40;5.15;;;1.40;;
52798;SDS011;38667;42.872;74.622;2022-08-21T09:51:10;3.80;;;1.00;;
52798;SDS011;38667;42.872;74.622;2022-08-21T09:53:38;1.23;;;0.85;;
52798;SDS011;38667;42.872;74.622;2022-08-21T09:56:16;4.68;;;1.05;;
52798;SDS011;38667;42.872;74.622;2022-08-21T09:58:50;3.78;;;1.00;;
52798;SDS011;38667;42.872;74.622;2022-08-21T10:01:18;5.35;;;1.67;;
52798;SDS011;38667;42.872;74.622;2022-08-21T10:03:48;3.95;;;1.80;;
52798;SDS011;38667;42.872;74.622;2022-08-21T10:06:28;2.78;;;1.63;;
52798;SDS011;38667;42.872;74.622;2022-08-21T10:09:03;4.38;;;1.75;;
52798;SDS011;38667;42.872;74.622;2022-08-21T10:11:30;4.20;;;1.08;;
52798;SDS011;38667;42.872;74.622;2022-08-21T10:13:59;3.22;;;1.33;;
52798;SDS011;38667;42.872;74.622;2022-08-21T10:16:37;4.63;;;1.25;;
52798;SDS011;38667;42.872;74.622;2022-08-21T10:19:20;1.35;;;0.98;;
52798;SDS011;38667;42.872;74.622;2022-08-21T10:21:56;4.60;;;1.73;;
52798;SDS011;38667;42.872;74.622;2022-08-21T10:24:29;2.05;;;1.38;;
52798;SDS011;38667;42.872;74.622;2022-08-21T10:27:02;2.30;;;1.33;;
52798;SDS011;38667;42.872;74.622;2022-08-21T10:29:41;2.78;;;1.20;;
52798;SDS011;38667;42.872;74.622;2022-08-21T10:32:16;4.72;;;1.92;;
52798;SDS011;38667;42.872;74.622;2022-08-21T10:35:12;6.07;;;1.27;;
52798;SDS011;38667;42.872;74.622;2022-08-21T10:37:48;7.38;;;2.05;;
52798;SDS011;38667;42.872;74.622;2022-08-21T10:40:52;2.35;;;1.30;;
52798;SDS011;38667;42.872;74.622;2022-08-21T10:43:28;4.45;;;1.20;;
52798;SDS011;38667;42.872;74.622;2022-08-21T10:46:08;5.88;;;1.15;;
52798;SDS011;38667;42.872;74.622;2022-08-21T10:48:42;5.55;;;1.40;;
52798;SDS011;38667;42.872;74.622;2022-08-21T10:51:16;8.93;;;1.70;;
52798;SDS011;38667;42.872;74.622;2022-08-21T10:53:55;3.55;;;1.38;;
52798;SDS011;38667;42.872;74.622;2022-08-21T10:56:30;4.00;;;1.17;;
52798;SDS011;38667;42.872;74.622;2022-08-21T10:59:04;1.90;;;1.40;;
52798;SDS011;38667;42.872;74.622;2022-08-21T11:01:43;2.83;;;1.23;;
52798;SDS011;38667;42.872;74.622;2022-08-21T11:04:16;6.10;;;1.05;;
52798;SDS011;38667;42.872;74.622;2022-08-21T11:06:51;1.60;;;0.93;;
52798;SDS011;38667;42.872;74.622;2022-08-21T11:09:24;4.15;;;1.45;;
52798;SDS011;38667;42.872;74.622;2022-08-21T11:11:52;2.65;;;0.85;;
52798;SDS011;38667;42.872;74.622;2022-08-21T11:14:25;2.78;;;1.42;;
52798;SDS011;38667;42.872;74.622;2022-08-21T11:17:02;4.93;;;1.30;;
52798;SDS011;38667;42.872;74.622;2022-08-21T11:19:34;5.05;;;1.55;;
52798;SDS011;38667;42.872;74.622;2022-08-21T11:22:13;3.50;;;1.17;;
52798;SDS011;38667;42.872;74.622;2022-08-21T11:24:44;1.58;;;1.00;;
52798;SDS011;38667;42.872;74.622;2022-08-21T11:27:18;5.95;;;1.05;;
52798;SDS011;38667;42.872;74.622;2022-08-21T11:29:50;3.88;;;0.82;;
52798;SDS011;38667;42.872;74.622;2022-08-21T11:32:29;5.75;;;1.00;;
52798;SDS011;38667;42.872;74.622;2022-08-21T11:35:10;1.92;;;1.30;;
52798;SDS011;38667;42.872;74.622;2022-08-21T11:37:49;4.55;;;1.40;;
52798;SDS011;38667;42.872;74.622;2022-08-21T11:40:24;2.97;;;1.20;;
52798;SDS011;38667;42.872;74.622;2022-08-21T11:43:01;7.63;;;1.20;;
52798;SDS011;38667;42.872;74.622;2022-08-21T11:45:36;1.38;;;0.80;;
52798;SDS011;38667;42.872;74.622;2022-08-21T11:48:11;4.93;;;1.42;;
52798;SDS011;38667;42.872;74.622;2022-08-21T11:50:48;3.75;;;1.20;;
52798;SDS011;38667;42.872;74.622;2022-08-21T11:53:18;3.95;;;0.93;;
52798;SDS011;38667;42.872;74.622;2022-08-21T11:55:50;3.22;;;1.55;;
52798;SDS011;38667;42.872;74.622;2022-08-21T11:58:22;2.80;;;1.35;;
52798;SDS011;38667;42.872;74.622;2022-08-21T12:00:52;7.03;;;1.10;;
52798;SDS011;38667;42.872;74.622;2022-08-21T12:03:22;4.72;;;1.30;;
52798;SDS011;38667;42.872;74.622;2022-08-21T12:05:52;8.32;;;1.58;;
52798;SDS011;38667;42.872;74.622;2022-08-21T12:08:28;3.75;;;1.45;;
52798;SDS011;38667;42.872;74.622;2022-08-21T12:11:00;2.03;;;1.30;;
52798;SDS011;38667;42.872;74.622;2022-08-21T12:13:29;1.70;;;1.02;;
52798;SDS011;38667;42.872;74.622;2022-08-21T12:16:04;2.83;;;0.95;;
52798;SDS011;38667;42.872;74.622;2022-08-21T12:18:32;5.97;;;1.20;;
52798;SDS011;38667;42.872;74.622;2022-08-21T12:21:01;3.20;;;1.23;;
52798;SDS011;38667;42.872;74.622;2022-08-21T12:23:32;4.15;;;1.05;;
52798;SDS011;38667;42.872;74.622;2022-08-21T12:31:47;3.60;;;1.40;;
52798;SDS011;38667;42.872;74.622;2022-08-21T12:34:19;3.38;;;1.60;;
52798;SDS011;38667;42.872;74.622;2022-08-21T12:36:49;2.35;;;1.55;;
52798;SDS011;38667;42.872;74.622;2022-08-21T12:39:24;3.65;;;1.60;;
52798;SDS011;38667;42.872;74.622;2022-08-21T12:41:54;2.90;;;1.50;;
52798;SDS011;38667;42.872;74.622;2022-08-21T12:44:26;4.40;;;1.67;;
52798;SDS011;38667;42.872;74.622;2022-08-21T12:47:00;3.33;;;2.00;;
52798;SDS011;38667;42.872;74.622;2022-08-21T12:49:30;11.20;;;2.00;;
52798;SDS011;38667;42.872;74.622;2022-08-21T12:52:01;5.45;;;1.80;;
52798;SDS011;38667;42.872;74.622;2022-08-21T12:54:38;2.10;;;1.40;;
52798;SDS011;38667;42.872;74.622;2022-08-21T12:57:08;3.88;;;1.90;;
52798;SDS011;38667;42.872;74.622;2022-08-21T12:59:42;2.20;;;1.75;;
52798;SDS011;38667;42.872;74.622;2022-08-21T13:02:11;4.55;;;1.92;;
52798;SDS011;38667;42.872;74.622;2022-08-21T13:04:43;8.45;;;1.88;;
52798;SDS011;38667;42.872;74.622;2022-08-21T13:07:11;5.43;;;2.05;;
52798;SDS011;38667;42.872;74.622;2022-08-21T13:09:42;6.57;;;1.98;;
52798;SDS011;38667;42.872;74.622;2022-08-21T13:12:12;4.70;;;1.85;;
52798;SDS011;38667;42.872;74.622;2022-08-21T13:14:40;6.88;;;2.30;;
52798;SDS011;38667;42.872;74.622;2022-08-21T13:17:10;5.97;;;2.88;;
52798;SDS011;38667;42.872;74.622;2022-08-21T13:19:37;9.05;;;2.97;;
52798;SDS011;38667;42.872;74.622;2022-08-21T13:22:03;4.72;;;2.38;;
52798;SDS011;38667;42.872;74.622;2022-08-21T13:24:38;4.90;;;2.42;;
52798;SDS011;38667;42.872;74.622;2022-08-21T13:27:16;7.80;;;2.38;;
52798;SDS011;38667;42.872;74.622;2022-08-21T13:29:45;7.05;;;2.60;;
52798;SDS011;38667;42.872;74.622;2022-08-21T13:32:13;5.00;;;2.10;;
52798;SDS011;38667;42.872;74.622;2022-08-21T13:34:46;5.93;;;2.30;;
52798;SDS011;38667;42.872;74.622;2022-08-21T13:37:12;6.28;;;2.40;;
52798;SDS011;38667;42.872;74.622;2022-08-21T13:39:39;6.30;;;2.42;;
52798;SDS011;38667;42.872;74.622;2022-08-21T13:42:08;6.28;;;1.80;;
52798;SDS011;38667;42.872;74.622;2022-08-21T13:44:40;5.95;;;1.88;;
52798;SDS011;38667;42.872;74.622;2022-08-21T13:47:09;4.10;;;2.38;;
52798;SDS011;38667;42.872;74.622;2022-08-21T13:49:38;7.03;;;2.88;;
52798;SDS011;38667;42.872;74.622;2022-08-21T13:52:13;8.77;;;2.50;;
52798;SDS011;38667;42.872;74.622;2022-08-21T13:54:41;6.30;;;2.42;;
52798;SDS011;38667;42.872;74.622;2022-08-21T13:57:16;6.97;;;1.92;;
52798;SDS011;38667;42.872;74.622;2022-08-21T13:59:45;4.80;;;1.85;;
52798;SDS011;38667;42.872;74.622;2022-08-21T14:02:12;11.18;;;2.60;;
52798;SDS011;38667;42.872;74.622;2022-08-21T14:04:42;11.65;;;2.80;;
52798;SDS011;38667;42.872;74.622;2022-08-21T14:07:20;8.50;;;3.10;;
52798;SDS011;38667;42.872;74.622;2022-08-21T14:09:51;9.13;;;3.15;;
52798;SDS011;38667;42.872;74.622;2022-08-21T14:12:19;10.10;;;3.30;;
52798;SDS011;38667;42.872;74.622;2022-08-21T14:14:53;6.45;;;3.40;;
52798;SDS011;38667;42.872;74.622;2022-08-21T14:17:26;12.32;;;3.53;;
52798;SDS011;38667;42.872;74.622;2022-08-21T14:19:54;11.60;;;3.28;;
52798;SDS011;38667;42.872;74.622;2022-08-21T14:25:06;7.43;;;3.60;;
52798;SDS011;38667;42.872;74.622;2022-08-21T14:27:38;11.80;;;4.05;;
52798;SDS011;38667;42.872;74.622;2022-08-21T14:30:12;12.63;;;5.15;;
52798;SDS011;38667;42.872;74.622;2022-08-21T14:32:43;11.98;;;4.93;;
52798;SDS011;38667;42.872;74.622;2022-08-21T14:35:11;12.85;;;4.88;;
52798;SDS011;38667;42.872;74.622;2022-08-21T14:37:40;13.45;;;5.65;;
52798;SDS011;38667;42.872;74.622;2022-08-21T14:40:08;12.13;;;5.20;;
52798;SDS011;38667;42.872;74.622;2022-08-21T14:42:35;12.60;;;5.57;;
52798;SDS011;38667;42.872;74.622;2022-08-21T14:45:07;12.57;;;5.40;;
52798;SDS011;38667;42.872;74.622;2022-08-21T14:47:38;16.00;;;5.40;;
52798;SDS011;38667;42.872;74.622;2022-08-21T14:50:05;14.73;;;4.70;;
52798;SDS011;38667;42.872;74.622;2022-08-21T14:52:32;13.55;;;4.97;;
52798;SDS011;38667;42.872;74.622;2022-08-21T14:54:58;17.02;;;5.30;;